createdAt,value
2023-05-06T00:00:43.137Z,28.89
2023-05-06T00:01:43.220Z,28.86
2023-05-06T00:02:43.340Z,28.84
2023-05-06T00:03:43.398Z,28.86
2023-05-06T00:04:43.403Z,28.87
2023-05-06T00:05:43.332Z,28.86
2023-05-06T00:06:43.404Z,28.89
2023-05-06T00:07:43.465Z,28.89
2023-05-06T00:08:43.541Z,28.86
2023-05-06T00:09:43.576Z,28.87
2023-05-06T00:10:43.650Z,28.86
2023-05-06T00:11:43.691Z,28.86
2023-05-06T00:12:43.796Z,28.89
2023-05-06T00:13:43.788Z,28.87
2023-05-06T00:14:43.811Z,28.86
2023-05-06T00:15:43.846Z,28.86
2023-05-06T00:16:44.000Z,28.86
2023-05-06T00:17:43.980Z,28.86
2023-05-06T00:18:44.003Z,28.89
2023-05-06T00:19:44.043Z,28.86
2023-05-06T00:20:44.210Z,28.86
2023-05-06T00:21:44.128Z,28.87
2023-05-06T00:22:44.168Z,28.87
2023-05-06T00:23:44.227Z,28.86
2023-05-06T00:24:44.311Z,28.86
2023-05-06T00:25:44.330Z,28.87
2023-05-06T00:26:44.416Z,28.86
2023-05-06T00:27:44.476Z,28.86
2023-05-06T00:28:44.520Z,28.84
2023-05-06T00:29:44.622Z,28.86
2023-05-06T00:30:44.637Z,28.87
2023-05-06T00:31:44.704Z,28.87
2023-05-06T00:32:44.790Z,28.86
2023-05-06T00:33:44.740Z,28.84
2023-05-06T00:34:44.827Z,28.84
2023-05-06T00:35:44.874Z,28.86
2023-05-06T00:36:44.947Z,28.83
2023-05-06T00:37:44.978Z,28.87
2023-05-06T00:38:45.020Z,28.83
2023-05-06T00:39:45.110Z,28.84
2023-05-06T00:40:45.135Z,28.83
2023-05-06T00:41:45.228Z,28.83
2023-05-06T00:42:45.282Z,28.84
2023-05-06T00:43:45.346Z,28.84
2023-05-06T00:44:45.418Z,28.83
2023-05-06T00:45:45.511Z,28.84
2023-05-06T00:46:45.505Z,28.82
2023-05-06T00:47:45.520Z,28.83
2023-05-06T00:48:45.584Z,28.84
2023-05-06T00:49:45.646Z,28.86
2023-05-06T00:50:45.720Z,28.84
2023-05-06T00:51:45.757Z,28.86
2023-05-06T00:52:45.806Z,28.83
2023-05-06T00:53:45.850Z,28.83
2023-05-06T00:54:45.902Z,28.83
2023-05-06T00:55:45.917Z,28.83
2023-05-06T00:56:45.978Z,28.84
2023-05-06T00:57:46.016Z,28.83
2023-05-06T00:58:46.047Z,28.82
2023-05-06T00:59:46.112Z,28.82
2023-05-06T01:00:46.175Z,28.83
2023-05-06T01:01:46.234Z,28.82
2023-05-06T01:02:47.897Z,28.80
2023-05-06T01:03:46.385Z,28.83
2023-05-06T01:04:46.424Z,28.82
2023-05-06T01:05:46.356Z,28.83
2023-05-06T01:06:46.414Z,28.82
2023-05-06T01:07:46.468Z,28.82
2023-05-06T01:08:46.605Z,28.84
2023-05-06T01:09:46.515Z,28.80
2023-05-06T01:10:46.531Z,28.80
2023-05-06T01:11:46.574Z,28.80
2023-05-06T01:12:46.659Z,28.80
2023-05-06T01:13:46.681Z,28.82
2023-05-06T01:14:46.750Z,28.82
2023-05-06T01:15:46.792Z,28.80
2023-05-06T01:16:46.851Z,28.79
2023-05-06T01:17:46.965Z,28.79
2023-05-06T01:18:47.091Z,28.77
2023-05-06T01:19:47.007Z,28.77
2023-05-06T01:20:47.045Z,28.79
2023-05-06T01:21:47.107Z,28.77
2023-05-06T01:22:47.750Z,28.76
2023-05-06T01:23:47.164Z,28.74
2023-05-06T01:24:47.204Z,28.76
2023-05-06T01:25:47.232Z,28.76
2023-05-06T01:26:47.269Z,28.77
2023-05-06T01:27:47.292Z,28.76
2023-05-06T01:28:47.316Z,28.76
2023-05-06T01:29:47.354Z,28.77
2023-05-06T01:30:47.445Z,28.77
2023-05-06T01:31:47.489Z,28.77
2023-05-06T01:32:47.472Z,28.76
2023-05-06T01:33:47.498Z,28.74
2023-05-06T01:34:47.500Z,28.77
2023-05-06T01:35:47.545Z,28.76
2023-05-06T01:36:47.583Z,28.76
2023-05-06T01:37:47.590Z,28.73
2023-05-06T01:38:47.670Z,28.77
2023-05-06T01:39:47.671Z,28.73
2023-05-06T01:40:47.787Z,28.77
2023-05-06T01:41:47.732Z,28.79
2023-05-06T01:42:47.768Z,28.76
2023-05-06T01:43:47.790Z,28.76
2023-05-06T01:44:47.830Z,28.77
2023-05-06T01:45:47.863Z,28.73
2023-05-06T01:46:47.986Z,28.74
2023-05-06T01:47:48.007Z,28.74
2023-05-06T01:48:47.947Z,28.76
2023-05-06T01:49:47.980Z,28.73
2023-05-06T01:50:47.997Z,28.72
2023-05-06T01:51:48.037Z,28.76
2023-05-06T01:52:48.044Z,28.73
2023-05-06T01:53:48.021Z,28.72
2023-05-06T01:54:48.087Z,28.72
2023-05-06T01:55:48.118Z,28.70
2023-05-06T01:56:48.126Z,28.73
2023-05-06T01:57:48.197Z,28.73
2023-05-06T01:58:48.205Z,28.72
2023-05-06T01:59:48.205Z,28.70
2023-05-06T02:00:48.263Z,28.70
2023-05-06T02:01:48.326Z,28.73
2023-05-06T02:02:48.376Z,28.72
2023-05-06T02:03:48.508Z,28.72
2023-05-06T02:04:48.397Z,28.70
2023-05-06T02:05:48.417Z,28.67
2023-05-06T02:06:48.427Z,28.72
2023-05-06T02:07:48.476Z,28.67
2023-05-06T02:08:48.540Z,28.69
2023-05-06T02:09:48.549Z,28.69
2023-05-06T02:10:48.594Z,28.69
2023-05-06T02:11:48.595Z,28.70
2023-05-06T02:12:48.770Z,28.70
2023-05-06T02:13:48.642Z,28.69
2023-05-06T02:14:48.645Z,28.67
2023-05-06T02:15:48.747Z,28.67
2023-05-06T02:16:48.647Z,28.67
2023-05-06T02:17:48.707Z,28.70
2023-05-06T02:18:48.695Z,28.66
2023-05-06T02:19:48.778Z,28.69
2023-05-06T02:20:48.764Z,28.66
2023-05-06T02:21:48.775Z,28.69
2023-05-06T02:22:48.790Z,28.69
2023-05-06T02:23:48.814Z,28.66
2023-05-06T02:24:48.821Z,28.69
2023-05-06T02:25:48.805Z,28.69
2023-05-06T02:26:48.843Z,28.69
2023-05-06T02:27:48.843Z,28.70
2023-05-06T02:28:48.948Z,28.67
2023-05-06T02:29:48.881Z,28.67
2023-05-06T02:30:48.946Z,28.67
2023-05-06T02:31:49.006Z,28.69
2023-05-06T02:32:49.071Z,28.69
2023-05-06T02:33:49.031Z,28.66
2023-05-06T02:34:49.083Z,28.67
2023-05-06T02:35:49.086Z,28.69
2023-05-06T02:36:49.107Z,28.67
2023-05-06T02:37:49.165Z,28.66
2023-05-06T02:38:49.186Z,28.67
2023-05-06T02:39:49.202Z,28.67
2023-05-06T02:40:49.247Z,28.64
2023-05-06T02:41:49.290Z,28.67
2023-05-06T02:42:49.391Z,28.66
2023-05-06T02:43:49.353Z,28.69
2023-05-06T02:44:49.469Z,28.66
2023-05-06T02:45:49.428Z,28.66
2023-05-06T02:46:49.425Z,28.67
2023-05-06T02:47:49.551Z,28.64
2023-05-06T02:48:49.526Z,28.64
2023-05-06T02:49:49.522Z,28.67
2023-05-06T02:50:49.553Z,28.66
2023-05-06T02:51:49.612Z,28.64
2023-05-06T02:52:49.633Z,28.66
2023-05-06T02:53:49.656Z,28.66
2023-05-06T02:54:49.672Z,28.64
2023-05-06T02:55:49.677Z,28.63
2023-05-06T02:56:49.681Z,28.64
2023-05-06T02:57:49.734Z,28.66
2023-05-06T02:58:49.724Z,28.63
2023-05-06T02:59:49.755Z,28.64
2023-05-06T03:00:49.739Z,28.67
2023-05-06T03:01:49.728Z,28.66
2023-05-06T03:02:49.793Z,28.66
2023-05-06T03:03:49.785Z,28.64
2023-05-06T03:04:49.769Z,28.64
2023-05-06T03:05:49.831Z,28.64
2023-05-06T03:06:49.808Z,28.63
2023-05-06T03:07:49.860Z,28.63
2023-05-06T03:08:49.904Z,28.66
2023-05-06T03:09:49.921Z,28.64
2023-05-06T03:10:49.966Z,28.64
2023-05-06T03:11:49.993Z,28.63
2023-05-06T03:12:50.010Z,28.63
2023-05-06T03:13:50.045Z,28.64
2023-05-06T03:14:50.085Z,28.64
2023-05-06T03:15:50.123Z,28.64
2023-05-06T03:16:50.241Z,28.63
2023-05-06T03:17:50.175Z,28.63
2023-05-06T03:18:50.172Z,28.66
2023-05-06T03:19:50.222Z,28.63
2023-05-06T03:20:50.252Z,28.64
2023-05-06T03:21:50.271Z,28.64
2023-05-06T03:22:50.300Z,28.64
2023-05-06T03:23:50.281Z,28.63
2023-05-06T03:24:50.349Z,28.64
2023-05-06T03:25:50.346Z,28.66
2023-05-06T03:26:50.391Z,28.63
2023-05-06T03:27:50.395Z,28.64
2023-05-06T03:28:50.442Z,28.64
2023-05-06T03:29:50.478Z,28.63
2023-05-06T03:30:50.488Z,28.63
2023-05-06T03:31:50.551Z,28.66
2023-05-06T03:32:50.626Z,28.64
2023-05-06T03:33:50.554Z,28.64
2023-05-06T03:34:50.559Z,28.64
2023-05-06T03:35:50.592Z,28.63
2023-05-06T03:36:50.624Z,28.62
2023-05-06T03:37:50.629Z,28.66
2023-05-06T03:38:50.649Z,28.63
2023-05-06T03:39:50.715Z,28.63
2023-05-06T03:40:50.744Z,28.64
2023-05-06T03:41:50.765Z,28.66
2023-05-06T03:42:50.817Z,28.63
2023-05-06T03:43:50.837Z,28.64
2023-05-06T03:44:50.830Z,28.62
2023-05-06T03:45:50.922Z,28.62
2023-05-06T03:46:50.928Z,28.64
2023-05-06T03:47:51.026Z,28.64
2023-05-06T03:48:51.124Z,28.62
2023-05-06T03:49:51.015Z,28.62
2023-05-06T03:50:51.082Z,28.63
2023-05-06T03:51:51.149Z,28.63
2023-05-06T03:52:51.138Z,28.63
2023-05-06T03:53:52.983Z,28.64
2023-05-06T03:54:51.151Z,28.63
2023-05-06T03:55:51.197Z,28.63
2023-05-06T03:56:51.144Z,28.63
2023-05-06T03:57:51.168Z,28.63
2023-05-06T03:58:51.150Z,28.62
2023-05-06T03:59:51.138Z,28.64
2023-05-06T04:00:51.119Z,28.62
2023-05-06T04:01:51.159Z,28.63
2023-05-06T04:02:51.176Z,28.63
2023-05-06T04:03:51.142Z,28.63
2023-05-06T04:04:51.152Z,28.64
2023-05-06T04:05:51.091Z,28.60
2023-05-06T04:06:51.082Z,28.63
2023-05-06T04:07:51.088Z,28.63
2023-05-06T04:08:51.094Z,28.62
2023-05-06T04:09:51.093Z,28.60
2023-05-06T04:10:51.051Z,28.62
2023-05-06T04:11:51.080Z,28.64
2023-05-06T04:12:51.084Z,28.63
2023-05-06T04:13:51.049Z,28.62
2023-05-06T04:14:51.044Z,28.62
2023-05-06T04:15:51.042Z,28.63
2023-05-06T04:16:51.014Z,28.62
2023-05-06T04:17:51.072Z,28.59
2023-05-06T04:18:51.001Z,28.64
2023-05-06T04:19:51.024Z,28.63
2023-05-06T04:20:51.067Z,28.60
2023-05-06T04:21:50.996Z,28.59
2023-05-06T04:22:51.008Z,28.62
2023-05-06T04:23:50.996Z,28.62
2023-05-06T04:24:50.959Z,28.59
2023-05-06T04:25:51.000Z,28.64
2023-05-06T04:26:50.974Z,28.62
2023-05-06T04:27:50.926Z,28.60
2023-05-06T04:28:50.936Z,28.62
2023-05-06T04:29:50.953Z,28.59
2023-05-06T04:30:50.937Z,28.60
2023-05-06T04:31:50.936Z,28.62
2023-05-06T04:32:50.947Z,28.62
2023-05-06T04:33:50.897Z,28.59
2023-05-06T04:34:50.898Z,28.60
2023-05-06T04:35:50.892Z,28.60
2023-05-06T04:36:50.950Z,28.60
2023-05-06T04:37:50.897Z,28.59
2023-05-06T04:38:50.892Z,28.62
2023-05-06T04:39:50.861Z,28.59
2023-05-06T04:40:50.860Z,28.62
2023-05-06T04:41:50.858Z,28.60
2023-05-06T04:42:50.847Z,28.60
2023-05-06T04:43:50.819Z,28.60
2023-05-06T04:44:50.822Z,28.60
2023-05-06T04:45:50.830Z,28.60
2023-05-06T04:46:50.817Z,28.60
2023-05-06T04:47:50.848Z,28.62
2023-05-06T04:48:50.807Z,28.62
2023-05-06T04:49:50.799Z,28.58
2023-05-06T04:50:50.781Z,28.62
2023-05-06T04:51:50.825Z,28.62
2023-05-06T04:52:50.813Z,28.60
2023-05-06T04:53:50.812Z,28.62
2023-05-06T04:54:50.875Z,28.62
2023-05-06T04:55:50.883Z,28.60
2023-05-06T04:56:50.955Z,28.60
2023-05-06T04:57:50.930Z,28.62
2023-05-06T04:58:50.955Z,28.59
2023-05-06T04:59:51.003Z,28.59
2023-05-06T05:00:51.000Z,28.60
2023-05-06T05:01:51.102Z,28.62
2023-05-06T05:02:51.216Z,28.62
2023-05-06T05:03:51.155Z,28.59
2023-05-06T05:04:51.180Z,28.62
2023-05-06T05:05:51.191Z,28.59
2023-05-06T05:06:51.240Z,28.62
2023-05-06T05:07:51.267Z,28.63
2023-05-06T05:08:51.427Z,28.59
2023-05-06T05:09:51.343Z,28.62
2023-05-06T05:10:51.411Z,28.60
2023-05-06T05:11:51.419Z,28.62
2023-05-06T05:12:51.492Z,28.60
2023-05-06T05:13:51.540Z,28.60
2023-05-06T05:14:51.555Z,28.59
2023-05-06T05:15:51.803Z,28.60
2023-05-06T05:16:51.675Z,28.62
2023-05-06T05:17:51.770Z,28.56
2023-05-06T05:18:51.670Z,28.60
2023-05-06T05:19:51.706Z,28.62
2023-05-06T05:20:51.774Z,28.59
2023-05-06T05:21:51.818Z,28.60
2023-05-06T05:22:51.842Z,28.60
2023-05-06T05:23:51.896Z,28.59
2023-05-06T05:24:52.173Z,28.60
2023-05-06T05:25:51.979Z,28.60
2023-05-06T05:26:52.011Z,28.58
2023-05-06T05:27:52.062Z,28.56
2023-05-06T05:28:52.092Z,28.60
2023-05-06T05:29:52.143Z,28.56
2023-05-06T05:30:52.211Z,28.60
2023-05-06T05:31:52.240Z,28.58
2023-05-06T05:32:52.374Z,28.60
2023-05-06T05:33:52.305Z,28.62
2023-05-06T05:34:52.315Z,28.58
2023-05-06T05:35:52.369Z,28.59
2023-05-06T05:36:52.377Z,28.60
2023-05-06T05:37:52.437Z,28.60
2023-05-06T05:38:52.479Z,28.62
2023-05-06T05:39:52.543Z,28.59
2023-05-06T05:40:52.640Z,28.59
2023-05-06T05:41:52.624Z,28.59
2023-05-06T05:42:52.637Z,28.59
2023-05-06T05:43:52.690Z,28.56
2023-05-06T05:44:52.750Z,28.59
2023-05-06T05:45:52.786Z,28.59
2023-05-06T05:46:52.916Z,28.62
2023-05-06T05:47:52.920Z,28.59
2023-05-06T05:48:52.973Z,28.60
2023-05-06T05:49:52.963Z,28.63
2023-05-06T05:50:53.006Z,28.62
2023-05-06T05:51:53.049Z,28.60
2023-05-06T05:52:53.053Z,28.60
2023-05-06T05:53:53.024Z,28.60
2023-05-06T05:54:53.053Z,28.58
2023-05-06T05:55:53.752Z,28.62
2023-05-06T05:56:53.108Z,28.59
2023-05-06T05:57:53.029Z,28.62
2023-05-06T05:58:53.083Z,28.60
2023-05-06T05:59:53.082Z,28.63
2023-05-06T06:00:53.152Z,28.58
2023-05-06T06:01:53.166Z,28.62
2023-05-06T06:02:53.340Z,28.64
2023-05-06T06:03:53.409Z,28.60
2023-05-06T06:04:53.320Z,28.62
2023-05-06T06:05:53.296Z,28.63
2023-05-06T06:06:53.312Z,28.64
2023-05-06T06:07:53.304Z,28.60
2023-05-06T06:08:53.328Z,28.64
2023-05-06T06:09:53.317Z,28.62
2023-05-06T06:10:53.291Z,28.63
2023-05-06T06:11:53.295Z,28.62
2023-05-06T06:12:53.484Z,28.64
2023-05-06T06:13:53.283Z,28.64
2023-05-06T06:14:53.328Z,28.66
2023-05-06T06:15:53.354Z,28.66
2023-05-06T06:16:53.359Z,28.67
2023-05-06T06:17:53.385Z,28.66
2023-05-06T06:18:53.354Z,28.66
2023-05-06T06:19:53.332Z,28.66
2023-05-06T06:20:53.700Z,28.64
2023-05-06T06:21:53.325Z,28.66
2023-05-06T06:22:53.401Z,28.63
2023-05-06T06:23:53.334Z,28.64
2023-05-06T06:24:53.364Z,28.66
2023-05-06T06:25:53.411Z,28.64
2023-05-06T06:26:53.434Z,28.66
2023-05-06T06:27:53.493Z,28.66
2023-05-06T06:28:53.588Z,28.64
2023-05-06T06:29:53.553Z,28.66
2023-05-06T06:30:53.591Z,28.63
2023-05-06T06:31:53.622Z,28.63
2023-05-06T06:32:53.684Z,28.63
2023-05-06T06:33:53.618Z,28.62
2023-05-06T06:34:53.609Z,28.64
2023-05-06T06:35:53.626Z,28.62
2023-05-06T06:36:53.618Z,28.66
2023-05-06T06:37:53.643Z,28.62
2023-05-06T06:38:53.689Z,28.63
2023-05-06T06:39:53.675Z,28.66
2023-05-06T06:40:53.707Z,28.64
2023-05-06T06:41:53.678Z,28.67
2023-05-06T06:42:53.690Z,28.63
2023-05-06T06:43:53.773Z,28.66
2023-05-06T06:44:53.860Z,28.64
2023-05-06T06:45:53.890Z,28.66
2023-05-06T06:46:53.868Z,28.66
2023-05-06T06:47:53.933Z,28.66
2023-05-06T06:48:53.938Z,28.66
2023-05-06T06:49:53.964Z,28.67
2023-05-06T06:50:54.008Z,28.67
2023-05-06T06:51:54.014Z,28.66
2023-05-06T06:52:54.066Z,28.66
2023-05-06T06:53:54.096Z,28.67
2023-05-06T06:54:54.107Z,28.67
2023-05-06T06:55:54.112Z,28.67
2023-05-06T06:56:54.141Z,28.67
2023-05-06T06:57:54.138Z,28.67
2023-05-06T06:58:54.172Z,28.67
2023-05-06T06:59:54.175Z,28.67
2023-05-06T07:00:54.276Z,28.67
2023-05-06T07:01:54.164Z,28.69
2023-05-06T07:02:54.340Z,28.69
2023-05-06T07:03:54.247Z,28.70
2023-05-06T07:04:54.220Z,28.72
2023-05-06T07:05:54.204Z,28.73
2023-05-06T07:06:54.241Z,28.72
2023-05-06T07:07:54.247Z,28.69
2023-05-06T07:08:54.294Z,28.73
2023-05-06T07:09:54.342Z,28.72
2023-05-06T07:10:54.349Z,28.72
2023-05-06T07:11:54.358Z,28.72
2023-05-06T07:12:54.435Z,28.69
2023-05-06T07:13:54.371Z,28.72
2023-05-06T07:14:54.384Z,28.72
2023-05-06T07:15:54.392Z,28.69
2023-05-06T07:16:54.435Z,28.73
2023-05-06T07:17:54.485Z,28.69
2023-05-06T07:18:54.441Z,28.70
2023-05-06T07:19:54.468Z,28.72
2023-05-06T07:20:54.458Z,28.70
2023-05-06T07:21:54.501Z,28.72
2023-05-06T07:22:54.479Z,28.72
2023-05-06T07:23:54.516Z,28.69
2023-05-06T07:24:54.569Z,28.72
2023-05-06T07:25:54.553Z,28.70
2023-05-06T07:26:54.586Z,28.70
2023-05-06T07:27:54.576Z,28.70
2023-05-06T07:28:54.591Z,28.70
2023-05-06T07:29:54.579Z,28.72
2023-05-06T07:30:54.694Z,28.72
2023-05-06T07:31:54.682Z,28.72
2023-05-06T07:32:54.929Z,28.72
2023-05-06T07:33:54.746Z,28.70
2023-05-06T07:34:54.788Z,28.72
2023-05-06T07:35:54.757Z,28.73
2023-05-06T07:36:54.791Z,28.73
2023-05-06T07:37:54.856Z,28.74
2023-05-06T07:38:54.861Z,28.73
2023-05-06T07:39:54.903Z,28.74
2023-05-06T07:40:54.902Z,28.76
2023-05-06T07:41:54.950Z,28.79
2023-05-06T07:42:54.980Z,28.80
2023-05-06T07:43:54.984Z,28.80
2023-05-06T07:44:55.033Z,28.83
2023-05-06T07:45:55.047Z,28.82
2023-05-06T07:46:55.157Z,28.84
2023-05-06T07:47:55.250Z,28.82
2023-05-06T07:48:55.223Z,28.87
2023-05-06T07:49:55.123Z,28.89
2023-05-06T07:50:55.171Z,28.92
2023-05-06T07:51:55.163Z,28.90
2023-05-06T07:52:55.208Z,28.90
2023-05-06T07:53:55.199Z,28.94
2023-05-06T07:54:55.245Z,28.93
2023-05-06T07:55:55.218Z,28.96
2023-05-06T07:56:55.266Z,28.97
2023-05-06T07:57:55.256Z,28.99
2023-05-06T07:58:55.298Z,29.02
2023-05-06T07:59:55.300Z,29.02
2023-05-06T08:00:55.319Z,29.02
2023-05-06T08:01:55.336Z,29.04
2023-05-06T08:02:55.399Z,29.03
2023-05-06T08:03:55.456Z,29.03
2023-05-06T08:04:55.539Z,29.03
2023-05-06T08:05:55.385Z,29.06
2023-05-06T08:06:55.381Z,29.04
2023-05-06T08:07:55.435Z,29.06
2023-05-06T08:08:55.459Z,29.04
2023-05-06T08:09:55.452Z,29.06
2023-05-06T08:10:55.464Z,29.07
2023-05-06T08:11:55.467Z,29.06
2023-05-06T08:12:55.521Z,29.04
2023-05-06T08:13:55.519Z,29.04
2023-05-06T08:14:55.524Z,29.03
2023-05-06T08:15:55.546Z,29.04
2023-05-06T08:16:55.548Z,29.03
2023-05-06T08:17:55.740Z,29.03
2023-05-06T08:18:55.670Z,29.04
2023-05-06T08:19:55.736Z,29.03
2023-05-06T08:20:55.843Z,29.03
2023-05-06T08:21:55.821Z,29.03
2023-05-06T08:22:55.882Z,29.02
2023-05-06T08:23:55.939Z,29.03
2023-05-06T08:24:55.990Z,29.03
2023-05-06T08:25:56.056Z,29.04
2023-05-06T08:26:56.119Z,29.06
2023-05-06T08:27:56.137Z,29.06
2023-05-06T08:28:56.232Z,29.03
2023-05-06T08:29:56.297Z,29.07
2023-05-06T08:30:56.325Z,29.04
2023-05-06T08:31:56.482Z,29.07
2023-05-06T08:32:56.479Z,29.09
2023-05-06T08:33:56.497Z,29.07
2023-05-06T08:34:56.567Z,29.07
2023-05-06T08:35:56.602Z,29.06
2023-05-06T08:36:56.687Z,29.09
2023-05-06T08:37:56.745Z,29.07
2023-05-06T08:38:56.809Z,29.07
2023-05-06T08:39:58.140Z,29.07
2023-05-06T08:40:56.877Z,29.07
2023-05-06T08:41:56.862Z,29.09
2023-05-06T08:42:56.842Z,29.09
2023-05-06T08:43:56.838Z,29.09
2023-05-06T08:44:56.858Z,29.07
2023-05-06T08:45:56.850Z,29.06
2023-05-06T08:46:56.831Z,29.09
2023-05-06T08:47:56.875Z,29.09
2023-05-06T08:48:56.802Z,29.07
2023-05-06T08:49:56.811Z,29.07
2023-05-06T08:50:56.803Z,29.06
2023-05-06T08:51:56.783Z,29.04
2023-05-06T08:52:56.780Z,29.06
2023-05-06T08:53:56.750Z,29.07
2023-05-06T08:54:56.791Z,29.06
2023-05-06T08:55:56.772Z,29.06
2023-05-06T08:56:56.769Z,29.07
2023-05-06T08:57:56.751Z,29.07
2023-05-06T08:58:56.766Z,29.07
2023-05-06T08:59:56.722Z,29.06
2023-05-06T09:00:56.730Z,29.07
2023-05-06T09:01:56.753Z,29.04
2023-05-06T09:02:56.847Z,29.09
2023-05-06T09:03:56.710Z,29.04
2023-05-06T09:04:56.727Z,29.07
2023-05-06T09:05:56.693Z,29.06
2023-05-06T09:06:56.697Z,29.07
2023-05-06T09:07:56.664Z,29.07
2023-05-06T09:08:56.768Z,29.07
2023-05-06T09:09:56.670Z,29.07
2023-05-06T09:10:56.671Z,29.07
2023-05-06T09:11:56.655Z,29.06
2023-05-06T09:12:56.687Z,29.09
2023-05-06T09:13:56.639Z,29.09
2023-05-06T09:14:56.619Z,29.06
2023-05-06T09:15:56.645Z,29.07
2023-05-06T09:16:56.713Z,29.09
2023-05-06T09:17:56.701Z,29.07
2023-05-06T09:18:56.663Z,29.06
2023-05-06T09:19:56.700Z,29.06
2023-05-06T09:20:57.735Z,29.03
2023-05-06T09:21:56.706Z,29.06
2023-05-06T09:22:56.697Z,29.07
2023-05-06T09:23:56.691Z,29.04
2023-05-06T09:24:56.852Z,29.06
2023-05-06T09:25:56.692Z,29.03
2023-05-06T09:26:56.666Z,29.04
2023-05-06T09:27:56.657Z,29.03
2023-05-06T09:28:56.641Z,29.06
2023-05-06T09:29:56.624Z,29.04
2023-05-06T09:30:56.680Z,29.03
2023-05-06T09:31:56.636Z,29.04
2023-05-06T09:32:56.698Z,29.02
2023-05-06T09:33:56.617Z,29.03
2023-05-06T09:34:56.646Z,29.03
2023-05-06T09:35:56.619Z,29.03
2023-05-06T09:36:56.599Z,29.02
2023-05-06T09:37:56.618Z,29.02
2023-05-06T09:38:56.600Z,29.02
2023-05-06T09:39:56.590Z,29.03
2023-05-06T09:40:56.659Z,29.00
2023-05-06T09:41:56.587Z,29.00
2023-05-06T09:42:56.579Z,29.00
2023-05-06T09:43:56.569Z,29.02
2023-05-06T09:44:57.363Z,28.97
2023-05-06T09:45:56.571Z,29.00
2023-05-06T09:46:56.558Z,28.99
2023-05-06T09:47:56.564Z,29.00
2023-05-06T09:48:56.513Z,29.00
2023-05-06T09:49:56.509Z,28.99
2023-05-06T09:50:57.203Z,28.99
2023-05-06T09:51:56.514Z,28.97
2023-05-06T09:52:56.619Z,28.96
2023-05-06T09:53:56.615Z,28.94
2023-05-06T09:54:56.498Z,28.96
2023-05-06T09:55:56.482Z,28.94
2023-05-06T09:56:56.463Z,28.96
2023-05-06T09:57:56.507Z,28.93
2023-05-06T09:58:56.474Z,28.97
2023-05-06T09:59:56.456Z,28.97
2023-05-06T10:00:56.454Z,28.96
2023-05-06T10:01:56.497Z,28.96
2023-05-06T10:02:56.563Z,28.94
2023-05-06T10:03:56.538Z,28.96
2023-05-06T10:04:56.635Z,28.96
2023-05-06T10:05:56.419Z,28.96
2023-05-06T10:06:56.397Z,28.93
2023-05-06T10:07:56.447Z,28.94
2023-05-06T10:08:56.441Z,28.96
2023-05-06T10:09:56.494Z,28.96
2023-05-06T10:10:56.485Z,28.96
2023-05-06T10:11:56.520Z,28.96
2023-05-06T10:12:56.660Z,28.96
2023-05-06T10:13:56.590Z,28.97
2023-05-06T10:14:56.702Z,28.94
2023-05-06T10:15:56.744Z,28.96
2023-05-06T10:16:56.801Z,28.96
2023-05-06T10:17:56.892Z,28.96
2023-05-06T10:18:56.937Z,28.96
2023-05-06T10:19:56.982Z,28.96
2023-05-06T10:20:57.077Z,28.97
2023-05-06T10:21:57.137Z,28.96
2023-05-06T10:22:57.162Z,28.97
2023-05-06T10:23:57.248Z,28.96
2023-05-06T10:24:57.290Z,28.99
2023-05-06T10:25:57.373Z,28.97
2023-05-06T10:26:57.416Z,28.97
2023-05-06T10:27:57.490Z,28.99
2023-05-06T10:28:57.528Z,28.96
2023-05-06T10:29:57.616Z,28.97
2023-05-06T10:30:57.671Z,28.96
2023-05-06T10:31:57.769Z,28.97
2023-05-06T10:32:57.786Z,28.97
2023-05-06T10:33:57.852Z,28.97
2023-05-06T10:34:57.915Z,28.99
2023-05-06T10:35:57.988Z,29.02
2023-05-06T10:36:58.066Z,28.99
2023-05-06T10:37:58.089Z,29.00
2023-05-06T10:38:58.155Z,29.00
2023-05-06T10:39:58.202Z,28.97
2023-05-06T10:40:58.293Z,29.00
2023-05-06T10:41:58.276Z,29.02
2023-05-06T10:42:58.289Z,29.02
2023-05-06T10:43:58.293Z,29.03
2023-05-06T10:44:58.358Z,29.03
2023-05-06T10:45:58.360Z,29.02
2023-05-06T10:46:58.330Z,29.00
2023-05-06T10:47:58.367Z,29.00
2023-05-06T10:48:58.344Z,29.00
2023-05-06T10:49:58.379Z,29.03
2023-05-06T10:50:58.382Z,29.00
2023-05-06T10:51:58.376Z,29.02
2023-05-06T10:52:58.403Z,29.00
2023-05-06T10:53:58.401Z,29.00
2023-05-06T10:54:58.421Z,29.03
2023-05-06T10:55:58.440Z,29.02
2023-05-06T10:56:58.452Z,29.02
2023-05-06T10:57:58.434Z,29.02
2023-05-06T10:58:58.465Z,29.02
2023-05-06T10:59:58.513Z,29.00
2023-05-06T11:00:58.671Z,29.02
2023-05-06T11:01:58.672Z,29.00
2023-05-06T11:02:58.714Z,29.02
2023-05-06T11:03:58.747Z,29.02
2023-05-06T11:04:58.732Z,28.99
2023-05-06T11:05:58.815Z,29.02
2023-05-06T11:06:58.885Z,29.00
2023-05-06T11:07:58.900Z,28.99
2023-05-06T11:08:58.974Z,29.00
2023-05-06T11:09:59.022Z,29.00
2023-05-06T11:10:59.070Z,29.02
2023-05-06T11:11:59.149Z,29.02
2023-05-06T11:12:59.254Z,29.02
2023-05-06T11:13:59.270Z,29.02
2023-05-06T11:14:59.356Z,29.02
2023-05-06T11:15:59.419Z,29.02
2023-05-06T11:16:59.564Z,29.03
2023-05-06T11:17:59.508Z,29.02
2023-05-06T11:18:59.507Z,29.03
2023-05-06T11:19:59.524Z,29.04
2023-05-06T11:20:59.496Z,29.03
2023-05-06T11:21:59.528Z,29.07
2023-05-06T11:22:59.543Z,29.04
2023-05-06T11:23:59.538Z,29.04
2023-05-06T11:24:59.542Z,29.03
2023-05-06T11:25:59.564Z,29.06
2023-05-06T11:26:59.608Z,29.06
2023-05-06T11:27:59.595Z,29.04
2023-05-06T11:28:59.596Z,29.02
2023-05-06T11:29:59.613Z,29.04
2023-05-06T11:30:59.679Z,29.04
2023-05-06T11:31:59.688Z,29.03
2023-05-06T11:32:59.746Z,29.04
2023-05-06T11:33:59.639Z,29.06
2023-05-06T11:34:59.655Z,29.04
2023-05-06T11:35:59.661Z,29.06
2023-05-06T11:36:59.690Z,29.03
2023-05-06T11:37:59.723Z,29.02
2023-05-06T11:38:59.672Z,29.04
2023-05-06T11:39:59.688Z,29.06
2023-05-06T11:40:59.697Z,29.04
2023-05-06T11:41:59.715Z,29.04
2023-05-06T11:42:59.770Z,29.04
2023-05-06T11:43:59.820Z,29.03
2023-05-06T11:44:59.850Z,29.06
2023-05-06T11:45:59.941Z,29.03
2023-05-06T11:46:59.831Z,29.03
2023-05-06T11:47:59.868Z,29.02
2023-05-06T11:49:00.150Z,29.04
2023-05-06T11:49:59.962Z,29.04
2023-05-06T11:51:00.020Z,29.04
2023-05-06T11:52:00.077Z,29.07
2023-05-06T11:53:00.149Z,29.06
2023-05-06T11:54:00.197Z,29.06
2023-05-06T11:55:00.220Z,29.04
2023-05-06T11:56:00.317Z,29.04
2023-05-06T11:57:00.377Z,29.07
2023-05-06T11:58:00.429Z,29.09
2023-05-06T11:59:00.461Z,29.06
2023-05-06T12:00:00.529Z,29.07
2023-05-06T12:01:00.585Z,29.06
2023-05-06T12:02:00.629Z,29.09
2023-05-06T12:03:00.800Z,29.09
2023-05-06T12:04:00.875Z,29.10
2023-05-06T12:05:00.840Z,29.09
2023-05-06T12:06:00.881Z,29.10
2023-05-06T12:07:00.927Z,29.11
2023-05-06T12:08:00.968Z,29.11
2023-05-06T12:09:01.030Z,29.11
2023-05-06T12:10:01.096Z,29.13
2023-05-06T12:11:01.122Z,29.14
2023-05-06T12:12:01.178Z,29.11
2023-05-06T12:13:01.324Z,29.16
2023-05-06T12:14:01.199Z,29.11
2023-05-06T12:15:01.208Z,29.14
2023-05-06T12:16:01.237Z,29.13
2023-05-06T12:17:01.180Z,29.14
2023-05-06T12:18:01.201Z,29.16
2023-05-06T12:19:01.188Z,29.17
2023-05-06T12:20:01.208Z,29.16
2023-05-06T12:21:01.199Z,29.14
2023-05-06T12:22:01.226Z,29.16
2023-05-06T12:23:01.235Z,29.14
2023-05-06T12:24:01.228Z,29.14
2023-05-06T12:25:01.206Z,29.16
2023-05-06T12:26:01.211Z,29.16
2023-05-06T12:27:01.247Z,29.17
2023-05-06T12:28:01.227Z,29.16
2023-05-06T12:29:01.239Z,29.13
2023-05-06T12:30:01.223Z,29.14
2023-05-06T12:31:01.254Z,29.16
2023-05-06T12:32:01.278Z,29.16
2023-05-06T12:33:01.289Z,29.16
2023-05-06T12:34:01.432Z,29.14
2023-05-06T12:35:01.256Z,29.16
2023-05-06T12:36:01.256Z,29.16
2023-05-06T12:37:01.334Z,29.14
2023-05-06T12:38:01.268Z,29.16
2023-05-06T12:39:01.326Z,29.16
2023-05-06T12:40:01.359Z,29.16
2023-05-06T12:41:01.280Z,29.14
2023-05-06T12:42:01.321Z,29.16
2023-05-06T12:43:01.259Z,29.17
2023-05-06T12:44:01.298Z,29.14
2023-05-06T12:45:01.265Z,29.16
2023-05-06T12:46:01.329Z,29.16
2023-05-06T12:47:01.292Z,29.16
2023-05-06T12:48:01.293Z,29.14
2023-05-06T12:49:01.314Z,29.14
2023-05-06T12:50:01.299Z,29.13
2023-05-06T12:51:01.283Z,29.16
2023-05-06T12:52:01.299Z,29.13
2023-05-06T12:53:01.332Z,29.13